createdAt,value
2022-10-11T00:00:11.595Z,6.78
2022-10-11T00:02:38.740Z,5.72
2022-10-11T00:05:06.202Z,6.07
2022-10-11T00:07:33.183Z,5.78
2022-10-11T00:10:00.160Z,6.07
2022-10-11T00:12:27.150Z,5.43
2022-10-11T00:14:54.139Z,5.32
2022-10-11T00:17:21.195Z,4.60
2022-10-11T00:19:48.223Z,6.30
2022-10-11T00:22:15.299Z,5.20
2022-10-11T00:24:42.267Z,4.93
2022-10-11T00:27:09.258Z,5.78
2022-10-11T00:29:37.973Z,4.70
2022-10-11T00:32:05.842Z,4.75
2022-10-11T00:34:32.790Z,5.32
2022-10-11T00:36:59.734Z,5.20
2022-10-11T00:39:26.733Z,4.60
2022-10-11T00:41:53.839Z,4.57
2022-10-11T00:44:24.840Z,4.60
2022-10-11T00:47:06.129Z,5.00
2022-10-11T00:49:40.496Z,3.75
2022-10-11T00:52:12.632Z,3.40
2022-10-11T00:54:42.077Z,3.88
2022-10-11T00:57:15.919Z,3.90
2022-10-11T00:59:46.679Z,4.43
2022-10-11T01:02:14.500Z,4.50
2022-10-11T01:04:42.756Z,4.40
2022-10-11T01:07:10.915Z,5.57
2022-10-11T01:09:38.261Z,4.93
2022-10-11T01:12:14.579Z,5.20
2022-10-11T01:15:03.300Z,6.07
2022-10-11T01:17:42.544Z,6.28
2022-10-11T01:20:18.333Z,5.72
2022-10-11T01:23:12.473Z,4.93
2022-10-11T01:25:42.213Z,5.85
2022-10-11T01:28:21.059Z,4.75
2022-10-11T01:30:49.018Z,6.07
2022-10-11T01:33:19.133Z,6.60
2022-10-11T01:35:54.985Z,6.28
2022-10-11T01:38:33.184Z,7.13
2022-10-11T01:41:06.002Z,7.38
2022-10-11T01:43:35.135Z,7.38
2022-10-11T01:46:04.132Z,8.07
2022-10-11T01:48:31.365Z,7.47
2022-10-11T01:51:02.128Z,7.30
2022-10-11T01:53:47.418Z,8.73
2022-10-11T01:57:08.931Z,8.52
2022-10-11T01:59:44.230Z,10.05
2022-10-11T02:02:41.282Z,8.52
2022-10-11T02:05:39.093Z,9.70
2022-10-11T02:08:44.561Z,10.30
2022-10-11T02:11:28.807Z,10.10
2022-10-11T02:14:18.832Z,10.23
2022-10-11T02:17:01.469Z,10.73
2022-10-11T02:19:34.373Z,10.90
2022-10-11T02:22:06.244Z,11.50
2022-10-11T02:24:36.386Z,11.32
2022-10-11T02:27:05.297Z,13.60
2022-10-11T02:29:36.495Z,12.60
2022-10-11T02:32:03.731Z,14.60
2022-10-11T02:34:42.479Z,13.75
2022-10-11T02:37:17.077Z,16.17
2022-10-11T02:39:56.006Z,18.60
2022-10-11T02:42:30.867Z,18.03
2022-10-11T02:45:02.934Z,19.80
2022-10-11T02:47:31.806Z,19.33
2022-10-11T02:50:00.364Z,18.65
2022-10-11T02:52:27.823Z,19.40
2022-10-11T02:54:54.834Z,18.80
2022-10-11T02:57:21.834Z,19.88
2022-10-11T02:59:48.779Z,19.05
2022-10-11T03:02:15.835Z,19.40
2022-10-11T03:04:42.913Z,19.08
2022-10-11T03:07:09.842Z,18.55
2022-10-11T03:09:36.800Z,18.77
2022-10-11T03:12:04.058Z,19.10
2022-10-11T03:14:31.061Z,18.48
2022-10-11T03:17:12.049Z,18.85
2022-10-11T03:19:44.972Z,19.38
2022-10-11T03:22:12.007Z,19.92
2022-10-11T03:24:38.979Z,19.20
2022-10-11T03:27:05.978Z,19.60
2022-10-11T03:29:32.952Z,21.17
2022-10-11T03:31:59.999Z,21.55
2022-10-11T03:34:27.069Z,20.70
2022-10-11T03:36:54.125Z,22.77
2022-10-11T03:39:21.239Z,20.60
2022-10-11T03:41:48.227Z,22.50
2022-10-11T03:44:15.198Z,22.70
2022-10-11T03:46:42.174Z,20.38
2022-10-11T03:49:09.315Z,20.00
2022-10-11T03:51:36.573Z,22.92
2022-10-11T03:54:03.623Z,21.38
2022-10-11T03:56:30.654Z,22.92
2022-10-11T03:58:57.624Z,22.20
2022-10-11T04:01:24.663Z,19.63
2022-10-11T04:03:54.763Z,20.77
2022-10-11T04:06:21.726Z,22.10
2022-10-11T04:08:48.741Z,21.80
2022-10-11T04:11:16.067Z,21.17
2022-10-11T04:13:43.049Z,20.75
2022-10-11T04:16:10.079Z,21.23
2022-10-11T04:18:37.245Z,21.00
2022-10-11T04:21:04.432Z,21.48
2022-10-11T04:23:32.406Z,20.17
2022-10-11T04:25:59.858Z,18.60
2022-10-11T04:28:26.883Z,18.33
2022-10-11T04:30:53.902Z,17.85
2022-10-11T04:33:20.907Z,17.77
2022-10-11T04:35:47.890Z,17.88
2022-10-11T04:38:15.050Z,17.55
2022-10-11T04:40:42.002Z,18.92
2022-10-11T04:43:09.002Z,19.27
2022-10-11T04:45:35.988Z,17.85
2022-10-11T04:48:02.994Z,20.88
2022-10-11T04:50:29.950Z,21.35
2022-10-11T04:52:57.715Z,18.52
2022-10-11T04:55:24.677Z,18.25
2022-10-11T04:57:51.779Z,18.17
2022-10-11T05:00:18.935Z,18.65
2022-10-11T05:02:45.913Z,19.45
2022-10-11T05:05:17.429Z,21.70
2022-10-11T05:07:44.538Z,22.23
2022-10-11T05:10:11.687Z,20.65
2022-10-11T05:12:38.763Z,21.17
2022-10-11T05:15:06.853Z,20.88
2022-10-11T05:17:33.978Z,20.95
2022-10-11T05:20:00.960Z,22.02
2022-10-11T05:22:27.964Z,21.33
2022-10-11T05:24:54.929Z,20.95
2022-10-11T05:27:22.009Z,22.63
2022-10-11T05:29:48.968Z,22.40
2022-10-11T05:32:16.013Z,24.25
2022-10-11T05:34:43.002Z,23.02
2022-10-11T05:37:09.971Z,22.83
2022-10-11T05:39:37.226Z,21.17
2022-10-11T05:42:08.907Z,24.25
2022-10-11T05:44:36.803Z,23.98
2022-10-11T05:47:03.874Z,22.55
2022-10-11T05:49:30.858Z,23.95
2022-10-11T05:51:57.922Z,26.35
2022-10-11T05:54:24.946Z,23.77
2022-10-11T05:56:51.875Z,25.60
2022-10-11T05:59:18.897Z,24.88
2022-10-11T06:01:45.964Z,26.67
2022-10-11T06:04:13.173Z,26.33
2022-10-11T06:06:40.135Z,27.42
2022-10-11T06:09:07.307Z,27.27
2022-10-11T06:11:34.995Z,28.27
2022-10-11T06:14:02.023Z,28.55
2022-10-11T06:16:29.015Z,28.65
2022-10-11T06:18:57.475Z,27.30
2022-10-11T06:21:25.018Z,29.50
2022-10-11T06:23:56.824Z,29.58
2022-10-11T06:26:27.395Z,29.15
2022-10-11T06:28:54.405Z,28.17
2022-10-11T06:31:21.379Z,30.50
2022-10-11T06:33:48.272Z,30.83
2022-10-11T06:36:16.949Z,30.40
2022-10-11T06:38:45.382Z,30.17
2022-10-11T06:41:18.637Z,29.13
2022-10-11T06:43:45.791Z,29.38
2022-10-11T06:46:13.234Z,29.55
2022-10-11T06:48:44.642Z,28.45
2022-10-11T06:51:16.855Z,28.40
2022-10-11T06:53:44.364Z,28.50
2022-10-11T06:56:12.885Z,27.88
2022-10-11T06:58:40.475Z,27.63
2022-10-11T07:01:10.425Z,27.52
2022-10-11T07:03:37.438Z,27.45
2022-10-11T07:06:16.131Z,26.23
2022-10-11T07:08:43.638Z,25.83
2022-10-11T07:11:13.337Z,24.20
2022-10-11T07:13:41.558Z,24.85
2022-10-11T07:16:11.404Z,23.58
2022-10-11T07:21:07.867Z,21.75
2022-10-11T07:23:35.320Z,24.15
2022-10-11T07:26:02.781Z,22.08
2022-10-11T07:28:30.780Z,20.90
2022-10-11T07:30:58.858Z,21.25
2022-10-11T07:33:25.871Z,21.13
2022-10-11T07:35:57.292Z,20.63
2022-10-11T07:38:24.241Z,21.92
2022-10-11T07:40:51.526Z,21.73
2022-10-11T07:43:18.587Z,20.83
2022-10-11T07:45:48.428Z,20.98
2022-10-11T07:50:42.422Z,18.75
2022-10-11T07:53:10.096Z,19.15
2022-10-11T07:55:42.127Z,20.17
2022-10-11T07:58:10.773Z,21.50
2022-10-11T08:00:38.003Z,20.67
2022-10-11T08:03:06.512Z,20.13
2022-10-11T08:05:34.337Z,20.27
2022-10-11T08:08:01.318Z,18.95
2022-10-11T08:10:28.693Z,20.42
2022-10-11T08:12:56.983Z,20.70
2022-10-11T08:17:52.474Z,18.80
2022-10-11T08:21:18.409Z,19.95
2022-10-11T08:23:45.615Z,20.52
2022-10-11T08:26:12.664Z,21.58
2022-10-11T08:28:39.650Z,20.52
2022-10-11T08:31:07.076Z,21.58
2022-10-11T08:33:34.148Z,22.50
2022-10-11T08:36:06.045Z,21.95
2022-10-11T08:38:34.231Z,20.65
2022-10-11T08:41:02.262Z,20.70
2022-10-11T08:43:46.142Z,21.20
2022-10-11T08:46:15.305Z,20.17
2022-10-11T08:48:46.109Z,22.55
2022-10-11T08:51:47.146Z,22.48
2022-10-11T08:54:38.670Z,22.23
2022-10-11T08:57:07.583Z,22.40
2022-10-11T08:59:57.647Z,24.17
2022-10-11T09:02:38.946Z,22.65
2022-10-11T09:05:18.707Z,22.85
2022-10-11T09:08:09.961Z,21.85
2022-10-11T09:10:55.724Z,21.63
2022-10-11T09:13:43.949Z,21.45
2022-10-11T09:16:16.298Z,24.75
2022-10-11T09:19:01.806Z,22.38
2022-10-11T09:21:42.219Z,20.15
2022-10-11T09:24:12.293Z,22.38
2022-10-11T09:26:59.557Z,21.50
2022-10-11T09:29:38.317Z,21.33
2022-10-11T09:32:16.417Z,22.55
2022-10-11T09:34:43.910Z,22.63
2022-10-11T09:37:27.860Z,21.77
2022-10-11T09:40:02.031Z,23.85
2022-10-11T09:42:29.019Z,22.15
2022-10-11T09:44:57.514Z,22.00
2022-10-11T09:47:30.491Z,22.65
2022-10-11T09:50:18.594Z,22.70
2022-10-11T09:52:56.742Z,21.83
2022-10-11T09:55:54.075Z,21.45
2022-10-11T09:58:35.499Z,21.25
2022-10-11T10:01:08.255Z,21.13
2022-10-11T10:03:40.521Z,22.58
2022-10-11T10:06:26.393Z,22.63
2022-10-11T10:08:53.380Z,22.55
2022-10-11T10:11:20.509Z,23.88
2022-10-11T10:13:53.398Z,24.77
2022-10-11T10:16:29.460Z,25.00
2022-10-11T10:19:04.230Z,23.33
2022-10-11T10:21:35.502Z,23.95
2022-10-11T10:24:07.703Z,24.02
2022-10-11T10:26:35.321Z,22.80
2022-10-11T10:29:16.496Z,22.20
2022-10-11T10:32:12.870Z,22.55
2022-10-11T10:34:39.958Z,22.77
2022-10-11T10:37:13.145Z,24.27
2022-10-11T10:39:46.658Z,23.00
2022-10-11T10:42:16.509Z,21.48
2022-10-11T10:47:25.567Z,23.10
2022-10-11T10:50:04.715Z,23.77
2022-10-11T10:52:48.524Z,24.25
2022-10-11T10:55:38.878Z,23.95
2022-10-11T10:58:18.902Z,23.92
2022-10-11T11:00:51.985Z,22.70
2022-10-11T11:03:24.535Z,26.00
2022-10-11T11:06:18.457Z,26.38
2022-10-11T11:08:52.042Z,26.17
2022-10-11T11:11:47.118Z,24.25
2022-10-11T11:14:26.022Z,24.88
2022-10-11T11:17:17.315Z,23.48
2022-10-11T11:19:56.412Z,22.50
2022-10-11T11:22:50.348Z,22.80
2022-10-11T11:25:26.522Z,22.15
2022-10-11T11:27:56.583Z,21.80
2022-10-11T11:30:46.814Z,19.23
2022-10-11T11:33:57.954Z,22.40
2022-10-11T11:36:35.616Z,20.85
2022-10-11T11:39:04.835Z,21.05
2022-10-11T11:41:43.518Z,20.63
2022-10-11T11:44:27.097Z,19.48
2022-10-11T11:47:18.093Z,19.73
2022-10-11T11:49:50.123Z,20.13
2022-10-11T11:52:27.903Z,17.50
2022-10-11T11:55:17.945Z,19.07
2022-10-11T11:58:00.160Z,18.65
2022-10-11T12:00:42.679Z,17.45
2022-10-11T12:03:20.408Z,17.63
2022-10-11T12:06:22.241Z,15.48
2022-10-11T12:09:02.042Z,15.60
2022-10-11T12:14:27.778Z,14.30
2022-10-11T12:17:18.232Z,13.48
2022-10-11T12:20:12.369Z,10.02
2022-10-11T12:22:50.308Z,11.32
2022-10-11T12:25:33.373Z,14.43
2022-10-11T12:29:00.137Z,15.20
2022-10-11T12:31:36.776Z,16.13
2022-10-11T12:34:17.523Z,13.82
2022-10-11T12:36:49.234Z,13.00
2022-10-11T12:39:19.406Z,11.82
2022-10-11T12:41:49.396Z,11.95
2022-10-11T12:44:19.441Z,13.05
2022-10-11T12:46:55.398Z,13.07
2022-10-11T12:49:46.160Z,13.35
2022-10-11T12:52:52.513Z,12.82
2022-10-11T12:55:37.568Z,13.10
2022-10-11T12:58:19.354Z,12.07
2022-10-11T13:00:52.240Z,10.15
2022-10-11T13:03:32.216Z,11.40
2022-10-11T13:06:09.692Z,8.50
2022-10-11T13:08:39.481Z,9.45
2022-10-11T13:11:10.094Z,9.60
2022-10-11T13:13:44.556Z,9.70
2022-10-11T13:16:18.810Z,8.93
2022-10-11T13:18:48.917Z,9.43
2022-10-11T13:21:22.997Z,8.98
2022-10-11T13:23:55.850Z,11.07
2022-10-11T13:26:24.121Z,14.32
2022-10-11T13:28:51.420Z,12.65
2022-10-11T13:31:18.646Z,13.40
2022-10-11T13:33:46.554Z,12.45
2022-10-11T13:36:29.403Z,14.07
2022-10-11T13:38:59.917Z,13.82
2022-10-11T13:41:31.993Z,14.98
2022-10-11T13:44:00.334Z,14.85
2022-10-11T13:46:29.415Z,16.00
2022-10-11T13:49:25.989Z,14.38
2022-10-11T13:52:02.316Z,14.93
2022-10-11T13:55:00.910Z,14.40
2022-10-11T13:57:57.454Z,15.48
2022-10-11T14:00:39.162Z,14.77
2022-10-11T14:03:15.362Z,14.07
2022-10-11T14:05:56.228Z,15.93
2022-10-11T14:08:25.982Z,14.52
2022-10-11T14:10:57.154Z,16.17
2022-10-11T14:13:34.486Z,14.45
2022-10-11T14:16:06.201Z,14.75
2022-10-11T14:18:49.965Z,15.10
2022-10-11T14:21:24.834Z,14.32
2022-10-11T14:24:06.942Z,14.80
2022-10-11T14:26:54.688Z,15.57
2022-10-11T14:29:29.196Z,15.07
2022-10-11T14:32:05.630Z,15.82
2022-10-11T14:34:33.215Z,13.88
2022-10-11T14:37:00.490Z,13.85
2022-10-11T14:39:29.858Z,14.85
2022-10-11T14:41:56.971Z,14.85
2022-10-11T14:44:24.330Z,14.68
2022-10-11T14:46:54.579Z,14.05
2022-10-11T14:49:30.526Z,14.88
2022-10-11T14:51:58.999Z,15.27
2022-10-11T14:54:28.839Z,12.85
2022-10-11T14:56:59.692Z,14.00
2022-10-11T14:59:31.883Z,14.85
2022-10-11T15:01:58.985Z,13.77
2022-10-11T15:04:27.277Z,13.05
2022-10-11T15:06:56.184Z,13.23
2022-10-11T15:09:28.243Z,13.32
2022-10-11T15:11:56.129Z,13.23
2022-10-11T15:14:24.269Z,13.65
2022-10-11T15:16:51.347Z,12.65
2022-10-11T15:19:20.848Z,13.02
2022-10-11T15:21:48.517Z,13.35
2022-10-11T15:24:15.964Z,13.13
2022-10-11T15:26:44.070Z,12.57
2022-10-11T15:29:37.885Z,12.43
2022-10-11T15:32:07.028Z,12.43
2022-10-11T15:34:33.934Z,13.07
2022-10-11T15:37:00.888Z,12.45
2022-10-11T15:39:32.662Z,13.00
2022-10-11T15:42:00.369Z,13.18
2022-10-11T15:44:58.960Z,12.95
2022-10-11T15:47:25.867Z,12.35
2022-10-11T15:50:34.124Z,12.52
2022-10-11T15:53:04.920Z,12.50
2022-10-11T15:55:33.871Z,12.45
2022-10-11T15:58:01.793Z,13.33
2022-10-11T16:00:29.767Z,12.70
2022-10-11T16:02:58.053Z,14.00
2022-10-11T16:05:27.952Z,13.07
2022-10-11T16:11:13.720Z,14.25
2022-10-11T16:13:40.992Z,13.40
2022-10-11T16:16:10.338Z,12.55
2022-10-11T16:18:37.916Z,12.52
2022-10-11T16:21:10.750Z,13.43
2022-10-11T16:23:38.374Z,13.23
2022-10-11T16:26:08.792Z,12.25
2022-10-11T16:28:36.441Z,14.07
2022-10-11T16:31:11.794Z,13.25
2022-10-11T16:33:45.900Z,13.77
2022-10-11T16:36:34.121Z,13.23
2022-10-11T16:39:03.790Z,13.30
2022-10-11T16:41:30.897Z,13.98
2022-10-11T16:43:57.945Z,13.45
2022-10-11T16:46:49.861Z,13.05
2022-10-11T16:49:19.113Z,13.00
2022-10-11T16:55:58.965Z,16.17
2022-10-11T16:58:26.003Z,21.23
2022-10-11T17:00:53.134Z,20.45
2022-10-11T17:03:20.148Z,25.23
2022-10-11T17:05:47.095Z,28.77
2022-10-11T17:08:14.045Z,25.15
2022-10-11T17:10:44.396Z,29.65
2022-10-11T17:13:12.073Z,25.27
2022-10-11T17:15:39.868Z,19.60
2022-10-11T17:18:07.169Z,16.17
2022-10-11T17:20:34.201Z,15.25
2022-10-11T17:23:01.204Z,15.32
2022-10-11T17:25:28.301Z,15.27
2022-10-11T17:27:56.563Z,14.68
2022-10-11T17:34:42.373Z,15.00
2022-10-11T17:37:10.208Z,15.90
2022-10-11T17:40:19.017Z,15.75
2022-10-11T17:42:48.029Z,16.23
2022-10-11T17:53:31.315Z,15.63
2022-10-11T17:56:56.727Z,15.23
2022-10-11T17:59:27.501Z,15.25
2022-10-11T18:01:54.800Z,16.25
2022-10-11T18:04:29.552Z,17.10
2022-10-11T18:06:57.058Z,16.55
2022-10-11T18:09:24.785Z,17.70
2022-10-11T18:11:52.213Z,17.05
2022-10-11T18:14:19.568Z,17.90
2022-10-11T18:16:46.757Z,18.58
2022-10-11T18:20:19.114Z,18.67
2022-10-11T18:22:46.057Z,19.08
2022-10-11T18:25:13.220Z,18.58
2022-10-11T18:27:42.347Z,17.83
2022-10-11T18:30:48.993Z,17.42
2022-10-11T18:37:41.494Z,17.58
2022-10-11T18:40:32.606Z,17.67
2022-10-11T18:42:59.597Z,17.90
2022-10-11T18:45:26.609Z,19.15
2022-10-11T18:47:53.753Z,17.90
2022-10-11T18:50:20.809Z,19.20
2022-10-11T18:52:49.197Z,18.15
2022-10-11T18:55:16.365Z,16.83
2022-10-11T18:58:35.785Z,16.17
2022-10-11T19:01:07.758Z,16.92
2022-10-11T19:03:35.616Z,16.08
2022-10-11T19:06:07.881Z,16.63
2022-10-11T19:08:35.442Z,17.00
2022-10-11T19:11:09.296Z,16.70
2022-10-11T19:13:37.013Z,17.73
2022-10-11T19:16:06.696Z,17.13
2022-10-11T19:18:34.676Z,18.75
2022-10-11T19:21:04.359Z,16.77
2022-10-11T19:26:20.407Z,16.00
2022-10-11T19:28:49.001Z,15.70
2022-10-11T19:31:17.121Z,16.80
2022-10-11T19:33:45.391Z,17.58
2022-10-11T19:36:15.248Z,16.60
2022-10-11T19:38:48.325Z,16.83
2022-10-11T19:41:18.104Z,17.70
2022-10-11T19:46:51.546Z,16.10
2022-10-11T19:49:22.707Z,16.80
2022-10-11T19:51:50.069Z,16.67
2022-10-11T19:54:17.241Z,15.88
2022-10-11T19:56:44.753Z,16.85
2022-10-11T19:59:12.985Z,15.70
2022-10-11T20:01:41.297Z,16.67
2022-10-11T20:04:22.676Z,15.02
2022-10-11T20:06:58.062Z,16.50
2022-10-11T20:09:29.445Z,18.08
2022-10-11T20:11:57.281Z,16.73
2022-10-11T20:14:24.474Z,16.20
2022-10-11T20:16:51.480Z,16.17
2022-10-11T20:19:18.902Z,15.57
2022-10-11T20:21:47.653Z,16.45
2022-10-11T20:24:15.214Z,16.45
2022-10-11T20:26:43.198Z,16.63
2022-10-11T20:29:10.279Z,15.68
2022-10-11T20:31:40.935Z,15.38
2022-10-11T20:34:09.328Z,15.70
2022-10-11T20:36:36.565Z,16.55
2022-10-11T20:39:05.219Z,15.70
2022-10-11T20:41:37.117Z,15.93
2022-10-11T20:44:04.846Z,16.48
2022-10-11T20:46:34.013Z,15.70
2022-10-11T20:49:03.514Z,16.27
2022-10-11T20:51:32.589Z,17.15
2022-10-11T20:54:00.737Z,17.23
2022-10-11T20:56:28.165Z,16.00
2022-10-11T20:58:56.532Z,15.82
2022-10-11T21:01:26.461Z,15.75
2022-10-11T21:03:54.008Z,15.35
2022-10-11T21:06:21.276Z,15.05
2022-10-11T21:08:48.396Z,15.40
2022-10-11T21:11:15.450Z,15.32
2022-10-11T21:13:42.884Z,15.38
2022-10-11T21:16:16.259Z,16.33
2022-10-11T21:18:43.300Z,15.88
2022-10-11T21:21:13.094Z,16.10
2022-10-11T21:26:10.549Z,15.30
2022-10-11T21:31:06.042Z,16.27
2022-10-11T21:33:34.310Z,15.82
2022-10-11T21:36:21.418Z,15.30
2022-10-11T21:38:49.145Z,15.05
2022-10-11T21:41:19.149Z,16.45
2022-10-11T21:43:47.221Z,16.88
2022-10-11T21:46:22.903Z,15.40
2022-10-11T21:48:50.498Z,15.60
2022-10-11T21:51:22.686Z,15.63
2022-10-11T21:53:49.938Z,14.65
2022-10-11T21:56:17.076Z,16.00
2022-10-11T21:58:46.249Z,14.50
2022-10-11T22:01:13.332Z,15.88
2022-10-11T22:03:40.461Z,16.25
2022-10-11T22:06:07.584Z,15.90
2022-10-11T22:08:34.625Z,15.48
2022-10-11T22:11:02.293Z,17.35
2022-10-11T22:13:31.052Z,15.65
2022-10-11T22:15:58.294Z,15.40
2022-10-11T22:18:25.289Z,15.95
2022-10-11T22:20:52.709Z,15.38
2022-10-11T22:23:19.888Z,14.60
2022-10-11T22:25:47.037Z,15.55
2022-10-11T22:28:14.083Z,16.50
2022-10-11T22:30:41.149Z,16.00
2022-10-11T22:33:08.126Z,15.40
2022-10-11T22:35:38.138Z,16.38
2022-10-11T22:38:06.522Z,16.23
2022-10-11T22:40:33.546Z,16.15
2022-10-11T22:43:00.550Z,16.17
2022-10-11T22:45:27.632Z,15.55
2022-10-11T22:47:54.622Z,15.93
2022-10-11T22:50:21.711Z,16.08
2022-10-11T22:52:48.688Z,15.55
2022-10-11T22:55:19.892Z,16.13
2022-10-11T22:57:47.311Z,16.48
2022-10-11T23:00:14.765Z,16.45
2022-10-11T23:02:41.699Z,15.63
2022-10-11T23:05:08.855Z,16.40
2022-10-11T23:07:36.172Z,14.63
2022-10-11T23:10:04.406Z,16.67
2022-10-11T23:12:31.465Z,15.65
2022-10-11T23:14:58.639Z,16.48
2022-10-11T23:17:25.683Z,17.15
2022-10-11T23:19:52.889Z,17.33
2022-10-11T23:22:19.894Z,16.27
2022-10-11T23:24:46.994Z,17.25
2022-10-11T23:27:13.971Z,16.83
2022-10-11T23:34:07.063Z,15.23
2022-10-11T23:36:34.022Z,16.70
2022-10-11T23:39:01.032Z,16.13
2022-10-11T23:41:29.620Z,16.15
2022-10-11T23:43:57.365Z,16.73
2022-10-11T23:46:24.818Z,16.35
2022-10-11T23:48:51.814Z,16.95
2022-10-11T23:51:18.838Z,16.70
2022-10-11T23:53:45.778Z,17.27
2022-10-11T23:56:12.831Z,17.40
2022-10-11T23:58:39.974Z,17.90
